createdAt,value
2017-11-22T00:00:27.378Z,87.00
2017-11-22T00:01:32.599Z,87.20
2017-11-22T00:02:37.233Z,87.00
2017-11-22T00:03:42.065Z,87.00
2017-11-22T00:04:46.408Z,87.00
2017-11-22T00:05:51.540Z,87.10
2017-11-22T00:06:56.673Z,87.20
2017-11-22T00:08:01.773Z,87.00
2017-11-22T00:09:06.256Z,86.90
2017-11-22T00:10:11.162Z,86.90
2017-11-22T00:11:15.783Z,86.90
2017-11-22T00:12:20.073Z,86.70
2017-11-22T00:13:31.122Z,86.80
2017-11-22T00:14:36.798Z,86.70
2017-11-22T00:15:41.586Z,86.80
2017-11-22T00:16:45.946Z,86.90
2017-11-22T00:17:51.074Z,86.90
2017-11-22T00:18:55.351Z,86.70
2017-11-22T00:19:59.623Z,86.60
2017-11-22T00:21:04.903Z,86.60
2017-11-22T00:22:11.809Z,86.60
2017-11-22T00:23:19.127Z,87.20
2017-11-22T00:24:25.989Z,86.80
2017-11-22T00:25:31.141Z,86.90
2017-11-22T00:26:35.685Z,87.00
2017-11-22T00:27:40.728Z,86.80
2017-11-22T00:28:48.056Z,86.60
2017-11-22T00:29:52.975Z,86.50
2017-11-22T00:30:58.150Z,86.40
2017-11-22T00:32:03.719Z,86.70
2017-11-22T00:33:12.035Z,86.70
2017-11-22T00:34:16.902Z,86.60
2017-11-22T00:35:22.729Z,86.80
2017-11-22T00:36:27.244Z,86.70
2017-11-22T00:37:31.992Z,86.70
2017-11-22T00:38:36.493Z,86.40
2017-11-22T00:39:40.818Z,86.60
2017-11-22T00:40:45.613Z,86.90
2017-11-22T00:41:51.351Z,86.80
2017-11-22T00:42:56.487Z,86.80
2017-11-22T00:44:02.334Z,87.00
2017-11-22T00:45:08.357Z,87.00
2017-11-22T00:46:12.957Z,86.90
2017-11-22T00:47:17.474Z,86.90
2017-11-22T00:48:21.857Z,86.70
2017-11-22T00:49:26.260Z,86.80
2017-11-22T00:50:30.756Z,86.70
2017-11-22T00:51:35.233Z,86.70
2017-11-22T00:52:39.801Z,86.60
2017-11-22T00:53:44.287Z,86.70
2017-11-22T00:54:49.296Z,86.80
2017-11-22T00:55:53.596Z,86.30
2017-11-22T00:56:58.655Z,86.30
2017-11-22T00:58:03.185Z,86.20
2017-11-22T00:59:07.491Z,86.40
2017-11-22T01:00:12.299Z,86.50
2017-11-22T01:01:16.845Z,86.40
2017-11-22T01:02:21.191Z,86.50
2017-11-22T01:03:25.484Z,86.30
2017-11-22T01:04:30.303Z,86.30
2017-11-22T01:05:35.581Z,86.00
2017-11-22T01:06:40.454Z,86.00
2017-11-22T01:07:45.457Z,85.60
2017-11-22T01:08:49.751Z,85.70
2017-11-22T01:09:54.421Z,85.90
2017-11-22T01:10:58.723Z,85.90
2017-11-22T01:12:03.497Z,85.80
2017-11-22T01:13:08.537Z,85.70
2017-11-22T01:14:14.166Z,86.30
2017-11-22T01:15:19.623Z,86.30
2017-11-22T01:16:25.086Z,86.00
2017-11-22T01:17:31.985Z,86.00
2017-11-22T01:18:37.293Z,86.10
2017-11-22T01:19:41.585Z,85.90
2017-11-22T01:20:46.000Z,85.80
2017-11-22T01:21:50.280Z,85.70
2017-11-22T01:22:55.643Z,85.10
2017-11-22T01:23:59.950Z,85.10
2017-11-22T01:25:04.334Z,85.20
2017-11-22T01:26:09.942Z,85.30
2017-11-22T01:27:15.062Z,85.20
2017-11-22T01:28:19.617Z,85.10
2017-11-22T01:29:23.982Z,85.40
2017-11-22T01:30:28.299Z,85.30
2017-11-22T01:31:34.558Z,85.30
2017-11-22T01:32:38.920Z,85.40
2017-11-22T01:33:43.460Z,85.50
2017-11-22T01:34:48.011Z,85.40
2017-11-22T01:35:53.137Z,85.80
2017-11-22T01:36:58.671Z,85.80
2017-11-22T01:38:03.768Z,85.50
2017-11-22T01:39:08.208Z,85.50
2017-11-22T01:40:13.289Z,85.50
2017-11-22T01:41:18.081Z,85.50
2017-11-22T01:42:22.544Z,85.30
2017-11-22T01:43:28.251Z,85.30
2017-11-22T01:44:33.527Z,85.60
2017-11-22T01:45:38.184Z,85.50
2017-11-22T01:46:42.609Z,85.50
2017-11-22T01:47:50.479Z,85.20
2017-11-22T01:48:57.526Z,85.50
2017-11-22T01:50:02.087Z,85.40
2017-11-22T01:51:06.654Z,85.10
2017-11-22T01:52:11.620Z,85.20
2017-11-22T01:53:15.968Z,85.20
2017-11-22T01:54:21.986Z,84.80
2017-11-22T01:55:26.505Z,84.80
2017-11-22T01:56:30.807Z,85.30
2017-11-22T01:57:36.808Z,85.20
2017-11-22T01:58:41.109Z,85.10
2017-11-22T01:59:45.416Z,85.30
2017-11-22T02:00:57.198Z,85.40
2017-11-22T02:02:01.477Z,85.20
2017-11-22T02:03:15.852Z,85.40
2017-11-22T02:04:20.501Z,85.30
2017-11-22T02:05:24.977Z,85.30
2017-11-22T02:06:29.286Z,85.40
2017-11-22T02:07:33.568Z,85.60
2017-11-22T02:08:38.693Z,85.80
2017-11-22T02:09:43.781Z,85.60
2017-11-22T02:10:48.120Z,85.50
2017-11-22T02:11:55.315Z,85.70
2017-11-22T02:13:01.114Z,85.40
2017-11-22T02:14:05.479Z,85.30
2017-11-22T02:15:10.342Z,85.50
2017-11-22T02:16:14.677Z,85.50
2017-11-22T02:17:19.834Z,85.80
2017-11-22T02:18:24.815Z,85.80
2017-11-22T02:19:29.358Z,85.60
2017-11-22T02:20:34.503Z,85.50
2017-11-22T02:21:39.356Z,85.50
2017-11-22T02:22:43.709Z,85.60
2017-11-22T02:23:49.039Z,85.80
2017-11-22T02:24:53.317Z,85.70
2017-11-22T02:25:57.641Z,85.70
2017-11-22T02:27:02.963Z,85.60
2017-11-22T02:28:07.982Z,85.60
2017-11-22T02:29:12.412Z,85.80
2017-11-22T02:30:17.517Z,85.90
2017-11-22T02:31:22.917Z,85.80
2017-11-22T02:32:27.660Z,85.80
2017-11-22T02:33:33.136Z,85.90
2017-11-22T02:34:37.494Z,85.80
2017-11-22T02:35:41.791Z,85.80
2017-11-22T02:36:46.603Z,86.00
2017-11-22T02:37:51.235Z,86.00
2017-11-22T02:38:55.632Z,85.90
2017-11-22T02:40:01.769Z,86.30
2017-11-22T02:41:06.414Z,85.70
2017-11-22T02:42:13.508Z,86.20
2017-11-22T02:43:19.063Z,86.00
2017-11-22T02:44:24.298Z,85.70
2017-11-22T02:45:28.907Z,85.70
2017-11-22T02:46:33.195Z,85.70
2017-11-22T02:47:38.667Z,85.70
2017-11-22T02:48:43.167Z,85.70
2017-11-22T02:49:47.523Z,85.70
2017-11-22T02:50:52.163Z,85.80
2017-11-22T02:51:57.468Z,85.90
2017-11-22T02:53:04.318Z,86.00
2017-11-22T02:54:09.360Z,86.00
2017-11-22T02:55:14.064Z,85.80
2017-11-22T02:56:19.226Z,85.80
2017-11-22T02:57:24.042Z,85.70
2017-11-22T02:58:28.612Z,85.70
2017-11-22T02:59:33.179Z,85.60
2017-11-22T03:00:38.482Z,85.70
2017-11-22T03:01:42.982Z,86.30
2017-11-22T03:02:47.694Z,85.80
2017-11-22T03:03:51.992Z,85.90
2017-11-22T03:04:56.429Z,85.50
2017-11-22T03:06:00.984Z,85.90
2017-11-22T03:07:06.524Z,86.10
2017-11-22T03:08:10.813Z,86.10
2017-11-22T03:09:16.126Z,86.20
2017-11-22T03:10:20.397Z,86.10
2017-11-22T03:11:24.673Z,86.20
2017-11-22T03:12:29.681Z,86.20
2017-11-22T03:13:34.111Z,86.30
2017-11-22T03:14:38.397Z,86.50
2017-11-22T03:15:43.813Z,86.40
2017-11-22T03:16:48.134Z,86.40
2017-11-22T03:17:53.270Z,86.60
2017-11-22T03:18:58.089Z,86.60
2017-11-22T03:21:18.962Z,86.30
2017-11-22T03:22:23.721Z,86.40
2017-11-22T03:23:28.408Z,86.40
2017-11-22T03:24:33.472Z,86.60
2017-11-22T03:25:38.326Z,86.80
2017-11-22T03:26:42.982Z,86.70
2017-11-22T03:27:47.554Z,86.60
2017-11-22T03:28:52.190Z,86.70
2017-11-22T03:29:56.674Z,86.80
2017-11-22T03:31:00.992Z,86.90
2017-11-22T03:32:05.255Z,86.90
2017-11-22T03:33:10.247Z,86.80
2017-11-22T03:34:15.275Z,86.70
2017-11-22T03:35:20.454Z,86.70
2017-11-22T03:36:25.086Z,87.00
2017-11-22T03:37:29.407Z,86.90
2017-11-22T03:38:34.152Z,86.90
2017-11-22T03:39:39.558Z,87.00
2017-11-22T03:40:44.381Z,87.00
2017-11-22T03:41:49.421Z,87.10
2017-11-22T03:42:54.737Z,87.30
2017-11-22T03:43:59.325Z,87.30
2017-11-22T03:45:04.010Z,87.30
2017-11-22T03:46:09.475Z,87.10
2017-11-22T03:47:14.688Z,87.10
2017-11-22T03:48:19.189Z,87.10
2017-11-22T03:49:23.492Z,87.10
2017-11-22T03:50:33.078Z,87.10
2017-11-22T03:51:43.292Z,87.10
2017-11-22T03:52:53.124Z,87.00
2017-11-22T03:53:57.795Z,86.90
2017-11-22T03:55:03.309Z,86.80
2017-11-22T03:56:07.606Z,86.80
2017-11-22T03:57:12.538Z,86.70
2017-11-22T03:58:17.667Z,86.60
2017-11-22T03:59:22.470Z,86.80
2017-11-22T04:00:31.085Z,86.50
2017-11-22T04:01:47.643Z,86.60
2017-11-22T04:02:57.430Z,86.50
2017-11-22T04:04:02.245Z,86.50
2017-11-22T04:05:06.613Z,86.40
2017-11-22T04:06:16.077Z,87.20
2017-11-22T04:07:20.691Z,86.60
2017-11-22T04:08:28.181Z,86.70
2017-11-22T04:09:34.500Z,86.50
2017-11-22T04:10:39.876Z,86.50
2017-11-22T04:11:44.339Z,86.60
2017-11-22T04:12:48.881Z,86.20
2017-11-22T04:13:55.439Z,86.50
2017-11-22T04:14:59.792Z,86.40
2017-11-22T04:16:04.465Z,86.40
2017-11-22T04:17:09.592Z,86.50
2017-11-22T04:18:14.395Z,86.40
2017-11-22T04:25:11.169Z,86.30
2017-11-22T04:26:15.581Z,86.50
2017-11-22T04:27:19.965Z,86.80
2017-11-22T04:28:24.329Z,87.00
2017-11-22T04:29:28.938Z,86.90
2017-11-22T04:30:33.314Z,86.80
2017-11-22T04:31:37.721Z,86.90
2017-11-22T04:32:41.999Z,86.80
2017-11-22T04:33:46.594Z,86.90
2017-11-22T04:34:51.932Z,87.00
2017-11-22T04:35:56.540Z,87.00
2017-11-22T04:37:00.849Z,86.80
2017-11-22T04:38:05.562Z,86.60
2017-11-22T04:39:10.143Z,86.70
2017-11-22T04:40:14.882Z,86.90
2017-11-22T04:41:20.273Z,87.00
2017-11-22T04:42:24.693Z,87.10
2017-11-22T04:43:29.328Z,87.10
2017-11-22T04:44:33.712Z,87.00
2017-11-22T04:45:38.277Z,86.90
2017-11-22T04:46:43.726Z,86.90
2017-11-22T04:47:48.395Z,86.90
2017-11-22T04:48:53.718Z,87.20
2017-11-22T04:49:58.230Z,87.00
2017-11-22T04:51:03.158Z,87.00
2017-11-22T04:52:07.582Z,87.30
2017-11-22T04:53:11.925Z,87.10
2017-11-22T04:54:16.479Z,86.90
2017-11-22T04:55:20.813Z,87.00
2017-11-22T04:56:25.930Z,87.10
2017-11-22T04:57:30.433Z,87.10
2017-11-22T04:58:35.167Z,87.00
2017-11-22T04:59:40.685Z,86.80
2017-11-22T05:00:45.491Z,86.80
2017-11-22T05:01:50.039Z,87.00
2017-11-22T05:02:55.273Z,86.90
2017-11-22T05:04:01.152Z,87.00
2017-11-22T05:05:05.475Z,87.00
2017-11-22T05:06:09.780Z,87.10
2017-11-22T05:07:14.116Z,87.20
2017-11-22T05:08:18.487Z,87.10
2017-11-22T05:09:23.261Z,87.30
2017-11-22T05:10:28.104Z,87.20
2017-11-22T05:11:32.923Z,86.90
2017-11-22T05:12:37.660Z,86.80
2017-11-22T05:13:42.218Z,86.70
2017-11-22T05:14:46.813Z,86.60
2017-11-22T05:15:51.138Z,86.60
2017-11-22T05:16:56.259Z,86.40
2017-11-22T05:18:00.598Z,86.40
2017-11-22T05:19:05.366Z,86.20
2017-11-22T05:20:09.962Z,86.30
2017-11-22T05:21:14.609Z,86.00
2017-11-22T05:22:20.732Z,85.60
2017-11-22T05:23:25.267Z,85.70
2017-11-22T05:24:29.862Z,85.00
2017-11-22T05:25:34.120Z,84.90
2017-11-22T05:26:39.812Z,85.00
2017-11-22T05:27:44.169Z,85.00
2017-11-22T05:28:49.117Z,85.00
2017-11-22T05:29:53.611Z,85.10
2017-11-22T05:30:58.133Z,84.80
2017-11-22T05:32:02.769Z,85.00
2017-11-22T05:33:07.764Z,84.80
2017-11-22T05:34:12.268Z,84.70
2017-11-22T05:35:17.799Z,84.50
2017-11-22T05:36:22.896Z,84.60
2017-11-22T05:37:28.626Z,84.60
2017-11-22T05:38:33.459Z,84.60
2017-11-22T05:39:38.010Z,84.70
2017-11-22T05:40:42.398Z,84.60
2017-11-22T05:41:47.662Z,84.60
2017-11-22T05:42:51.978Z,84.60
2017-11-22T05:43:56.734Z,84.50
2017-11-22T05:45:01.246Z,84.30
2017-11-22T05:46:06.789Z,84.20
2017-11-22T05:47:11.094Z,84.20
2017-11-22T05:48:15.409Z,84.40
2017-11-22T05:49:20.007Z,84.30
2017-11-22T05:50:24.351Z,84.20
2017-11-22T05:51:28.629Z,84.00
2017-11-22T05:52:32.910Z,84.20
2017-11-22T05:53:37.447Z,84.20
2017-11-22T05:54:42.476Z,84.30
2017-11-22T05:55:47.604Z,83.80
2017-11-22T05:56:52.865Z,83.80
2017-11-22T05:57:57.259Z,83.90
2017-11-22T05:59:02.645Z,83.90
2017-11-22T06:00:07.138Z,83.90
2017-11-22T06:01:11.594Z,83.70
2017-11-22T06:02:16.052Z,84.10
2017-11-22T06:03:21.093Z,84.10
2017-11-22T06:04:26.306Z,84.80
2017-11-22T06:05:30.755Z,84.00
2017-11-22T06:06:35.290Z,84.10
2017-11-22T06:07:40.439Z,83.70
2017-11-22T06:08:44.773Z,83.70
2017-11-22T06:09:49.340Z,83.40
2017-11-22T06:10:54.570Z,83.60
2017-11-22T06:11:59.708Z,83.50
2017-11-22T06:13:04.874Z,83.90
2017-11-22T06:14:09.235Z,83.80
2017-11-22T06:15:14.859Z,83.70
2017-11-22T06:16:20.255Z,83.80
2017-11-22T06:17:24.538Z,83.80
2017-11-22T06:18:28.923Z,83.60
2017-11-22T06:19:33.979Z,83.60
2017-11-22T06:20:38.362Z,83.60
2017-11-22T06:21:42.797Z,83.40
2017-11-22T06:22:47.198Z,83.30
2017-11-22T06:23:52.555Z,83.30
2017-11-22T06:24:56.836Z,83.20
2017-11-22T06:26:03.239Z,83.00
2017-11-22T06:27:08.260Z,83.00
2017-11-22T06:28:12.670Z,83.10
2017-11-22T06:29:17.015Z,83.30
2017-11-22T06:30:27.312Z,83.30
2017-11-22T06:31:31.900Z,83.30
2017-11-22T06:32:38.175Z,83.30
2017-11-22T06:33:42.991Z,83.30
2017-11-22T06:34:47.997Z,83.10
2017-11-22T06:35:53.195Z,83.10
2017-11-22T06:36:57.827Z,83.00
2017-11-22T06:38:02.485Z,83.00
2017-11-22T06:39:06.874Z,83.00
2017-11-22T06:40:11.738Z,83.20
2017-11-22T06:41:16.000Z,83.10
2017-11-22T06:42:20.585Z,82.90
2017-11-22T06:43:25.483Z,83.00
2017-11-22T06:44:30.489Z,83.00
2017-11-22T06:45:34.815Z,83.80
2017-11-22T06:46:40.334Z,82.80
2017-11-22T06:47:45.699Z,82.90
2017-11-22T06:48:50.051Z,82.90
2017-11-22T06:49:54.368Z,82.60
2017-11-22T06:50:59.095Z,82.90
2017-11-22T06:52:04.228Z,82.90
2017-11-22T06:53:08.562Z,83.20
2017-11-22T06:54:14.025Z,82.90
2017-11-22T06:55:19.825Z,82.90
2017-11-22T06:56:24.897Z,82.60
2017-11-22T06:57:29.239Z,82.60
2017-11-22T06:58:33.877Z,82.70
2017-11-22T06:59:39.043Z,82.20
2017-11-22T07:00:43.734Z,82.10
2017-11-22T07:01:54.017Z,82.20
2017-11-22T07:03:01.296Z,82.20
2017-11-22T07:04:07.464Z,82.50
2017-11-22T07:05:12.431Z,82.80
2017-11-22T07:06:18.060Z,82.70
2017-11-22T07:07:23.355Z,82.80
2017-11-22T07:08:27.971Z,82.80
2017-11-22T07:09:34.090Z,83.60
2017-11-22T07:10:39.041Z,82.90
2017-11-22T07:11:43.874Z,82.70
2017-11-22T07:12:49.279Z,82.40
2017-11-22T07:13:54.924Z,82.40
2017-11-22T07:15:02.444Z,82.30
2017-11-22T07:16:08.480Z,82.70
2017-11-22T07:17:19.427Z,82.70
2017-11-22T07:18:25.720Z,82.70
2017-11-22T07:19:30.709Z,82.80
2017-11-22T07:20:54.455Z,83.10
2017-11-22T07:22:20.377Z,83.20
2017-11-22T07:23:30.704Z,83.10
2017-11-22T07:24:38.702Z,83.10
2017-11-22T07:25:44.486Z,83.20
2017-11-22T07:26:49.095Z,83.30
2017-11-22T07:27:54.607Z,83.40
2017-11-22T07:28:59.259Z,83.50
2017-11-22T07:30:04.630Z,83.50
2017-11-22T07:31:09.294Z,83.40
2017-11-22T07:32:14.807Z,83.70
2017-11-22T07:33:19.523Z,83.70
2017-11-22T07:34:24.149Z,83.60
2017-11-22T07:35:33.758Z,84.00
2017-11-22T07:36:43.396Z,83.80
2017-11-22T07:38:06.899Z,83.40
2017-11-22T07:39:11.516Z,83.60
2017-11-22T07:40:16.457Z,83.80
2017-11-22T07:41:20.917Z,83.60
2017-11-22T07:42:25.696Z,83.60
2017-11-22T07:43:29.994Z,83.80
2017-11-22T07:44:34.290Z,83.60
2017-11-22T07:45:38.613Z,83.40
2017-11-22T07:46:43.008Z,83.10
2017-11-22T07:53:34.404Z,83.20
2017-11-22T07:54:38.768Z,83.20
2017-11-22T07:55:43.151Z,82.50
2017-11-22T07:56:48.573Z,82.20
2017-11-22T07:57:52.908Z,82.20
2017-11-22T07:58:57.650Z,82.20
2017-11-22T08:00:02.019Z,82.50
2017-11-22T08:01:07.178Z,82.00
2017-11-22T08:02:11.553Z,82.00
2017-11-22T08:03:22.733Z,81.90
2017-11-22T08:04:29.072Z,81.90
2017-11-22T08:05:34.167Z,81.60
2017-11-22T08:06:38.629Z,81.60
2017-11-22T08:07:42.952Z,81.50
2017-11-22T08:08:48.039Z,81.60
2017-11-22T08:09:52.539Z,81.50
2017-11-22T08:10:57.630Z,81.40
2017-11-22T08:12:01.962Z,81.40
2017-11-22T08:13:06.289Z,81.20
2017-11-22T08:14:11.709Z,81.40
2017-11-22T08:15:16.290Z,81.40
2017-11-22T08:16:20.600Z,81.10
2017-11-22T08:17:24.914Z,81.00
2017-11-22T08:18:29.177Z,80.90
2017-11-22T08:19:33.469Z,80.70
2017-11-22T08:20:38.692Z,80.50
2017-11-22T08:21:44.431Z,80.60
2017-11-22T08:22:49.518Z,80.60
2017-11-22T08:23:53.897Z,80.60
2017-11-22T08:25:00.221Z,80.70
2017-11-22T08:26:08.124Z,80.20
2017-11-22T08:27:13.275Z,80.20
2017-11-22T08:28:17.594Z,79.90
2017-11-22T08:29:21.929Z,80.00
2017-11-22T08:30:27.091Z,80.10
2017-11-22T08:31:32.124Z,79.50
2017-11-22T08:32:36.714Z,79.50
2017-11-22T08:33:41.023Z,79.20
2017-11-22T08:34:46.154Z,79.20
2017-11-22T08:35:50.473Z,79.20
2017-11-22T08:36:56.148Z,79.00
2017-11-22T08:38:00.947Z,79.00
2017-11-22T08:39:05.981Z,79.10
2017-11-22T08:40:10.332Z,78.90
2017-11-22T08:41:15.999Z,78.60
2017-11-22T08:42:26.602Z,78.70
2017-11-22T08:43:33.893Z,78.70
2017-11-22T08:44:38.261Z,78.60
2017-11-22T08:45:42.539Z,78.80
2017-11-22T08:46:48.067Z,78.80
2017-11-22T08:47:53.417Z,78.80
2017-11-22T08:48:57.832Z,78.80
2017-11-22T08:50:02.763Z,78.90
2017-11-22T08:51:07.152Z,79.10
2017-11-22T08:52:12.212Z,78.70
2017-11-22T08:53:16.618Z,78.70
2017-11-22T08:54:26.214Z,78.70
2017-11-22T08:55:36.422Z,78.70
2017-11-22T08:56:45.824Z,78.70
2017-11-22T08:57:55.799Z,78.50
2017-11-22T08:59:00.321Z,78.60
2017-11-22T09:00:09.771Z,78.80
2017-11-22T09:01:15.263Z,78.80
2017-11-22T09:02:19.570Z,78.70
2017-11-22T09:03:25.258Z,78.70
2017-11-22T09:04:29.845Z,78.60
2017-11-22T09:05:49.686Z,78.10
2017-11-22T09:06:54.418Z,78.10
2017-11-22T09:07:58.840Z,77.70
2017-11-22T09:09:04.087Z,77.90
2017-11-22T09:10:09.400Z,77.60
2017-11-22T09:11:14.588Z,77.50
2017-11-22T09:12:24.370Z,77.50
2017-11-22T09:13:28.730Z,77.00
2017-11-22T09:14:33.534Z,76.80
2017-11-22T09:15:37.876Z,76.90
2017-11-22T09:16:42.258Z,76.60
2017-11-22T09:17:46.649Z,76.30
2017-11-22T09:18:56.047Z,76.40
2017-11-22T09:20:00.433Z,76.40
2017-11-22T09:21:04.812Z,75.80
2017-11-22T09:22:09.121Z,75.40
2017-11-22T09:23:13.825Z,74.90
2017-11-22T09:24:19.271Z,75.00
2017-11-22T09:25:23.662Z,74.80
2017-11-22T09:26:28.627Z,74.90
2017-11-22T09:27:38.117Z,73.80
2017-11-22T09:28:43.130Z,73.80
2017-11-22T09:29:53.283Z,74.10
2017-11-22T09:38:04.462Z,74.10
2017-11-22T09:39:10.353Z,72.80
2017-11-22T09:40:15.074Z,72.80
2017-11-22T09:41:19.414Z,73.00
2017-11-22T09:42:23.807Z,72.50
2017-11-22T09:43:28.307Z,71.70
2017-11-22T09:44:33.020Z,71.80
2017-11-22T09:45:38.325Z,71.70
2017-11-22T09:46:43.117Z,72.00
2017-11-22T09:47:47.633Z,71.90
2017-11-22T09:48:52.744Z,71.10
2017-11-22T09:49:57.218Z,71.10
2017-11-22T09:51:01.929Z,71.10
2017-11-22T09:52:06.319Z,71.30
2017-11-22T09:53:10.669Z,70.80
2017-11-22T09:54:15.086Z,70.50
2017-11-22T09:55:20.100Z,70.40
2017-11-22T09:56:24.452Z,70.70
2017-11-22T09:57:29.555Z,70.80
2017-11-22T09:58:33.906Z,70.80
2017-11-22T09:59:38.264Z,70.90
2017-11-22T10:00:43.023Z,70.70
2017-11-22T10:01:48.534Z,71.30
2017-11-22T10:02:53.605Z,71.20
2017-11-22T10:03:58.010Z,71.30
2017-11-22T10:05:02.368Z,71.90
2017-11-22T10:06:06.781Z,71.40
2017-11-22T10:07:11.099Z,71.40
2017-11-22T10:08:15.950Z,71.40
2017-11-22T10:09:20.351Z,70.90
2017-11-22T10:10:25.497Z,70.90
2017-11-22T10:11:29.997Z,70.90
2017-11-22T10:12:34.388Z,71.30
2017-11-22T10:13:39.990Z,70.80
2017-11-22T10:15:01.036Z,70.70
2017-11-22T10:16:06.147Z,71.30
2017-11-22T10:17:12.745Z,70.80
2017-11-22T10:18:21.249Z,70.70
2017-11-22T10:19:25.711Z,70.90
2017-11-22T10:20:30.127Z,71.20
2017-11-22T10:21:39.417Z,70.90
2017-11-22T10:22:45.922Z,70.90
2017-11-22T10:23:52.354Z,70.40
2017-11-22T10:25:01.375Z,70.40
2017-11-22T10:26:06.236Z,69.80
2017-11-22T10:27:14.779Z,69.60
2017-11-22T10:28:19.611Z,69.40
2017-11-22T10:29:24.147Z,68.80
2017-11-22T10:30:30.111Z,68.90
2017-11-22T10:31:39.428Z,68.50
2017-11-22T10:32:48.724Z,68.10
2017-11-22T10:33:53.754Z,68.00
2017-11-22T10:34:58.269Z,67.40
2017-11-22T10:36:03.833Z,67.30
2017-11-22T10:37:08.174Z,67.30
2017-11-22T10:38:12.550Z,68.10
2017-11-22T10:39:17.060Z,68.30
2017-11-22T10:40:22.270Z,68.00
2017-11-22T10:41:27.707Z,67.20
2017-11-22T10:42:32.849Z,67.40
2017-11-22T10:43:37.244Z,67.30
2017-11-22T10:44:42.905Z,66.40
2017-11-22T10:45:47.397Z,66.40
2017-11-22T10:46:53.189Z,65.90
2017-11-22T10:47:57.643Z,65.90
2017-11-22T10:49:02.810Z,65.60
2017-11-22T10:50:08.278Z,65.50
2017-11-22T10:51:15.243Z,64.70
2017-11-22T10:52:21.893Z,64.70
2017-11-22T10:53:27.130Z,64.70
2017-11-22T10:54:32.266Z,64.60
2017-11-22T10:55:38.463Z,64.30
2017-11-22T10:56:52.702Z,64.90
2017-11-22T10:57:57.488Z,64.30
2017-11-22T10:59:01.958Z,63.70
2017-11-22T11:00:06.666Z,63.40
2017-11-22T11:01:11.312Z,63.60
2017-11-22T11:02:16.162Z,63.30
2017-11-22T11:03:22.809Z,63.50
2017-11-22T11:04:28.935Z,63.50
2017-11-22T11:05:33.470Z,63.90
2017-11-22T11:06:38.241Z,63.20
2017-11-22T11:07:42.625Z,63.00
2017-11-22T11:08:47.736Z,62.80
2017-11-22T11:09:53.959Z,62.90
2017-11-22T11:10:58.323Z,63.00
2017-11-22T11:12:02.709Z,62.90
2017-11-22T11:13:08.073Z,62.60
2017-11-22T11:14:13.767Z,62.50
2017-11-22T11:15:18.259Z,62.60
2017-11-22T11:16:28.260Z,62.50
2017-11-22T11:17:33.436Z,62.80
2017-11-22T11:18:38.415Z,62.50
2017-11-22T11:19:43.153Z,62.70
2017-11-22T11:20:58.267Z,62.40
2017-11-22T11:22:06.932Z,62.20
2017-11-22T11:23:13.535Z,61.80
2017-11-22T11:24:37.906Z,61.70
2017-11-22T11:25:44.112Z,61.70
2017-11-22T11:26:48.775Z,61.70
2017-11-22T11:27:54.338Z,61.40
2017-11-22T11:28:58.989Z,61.40
2017-11-22T11:30:03.598Z,61.20
2017-11-22T11:31:08.590Z,60.60
2017-11-22T11:32:13.201Z,60.00
2017-11-22T11:33:18.648Z,59.80
2017-11-22T11:34:23.247Z,59.70
2017-11-22T11:35:36.511Z,59.80
2017-11-22T11:36:41.361Z,59.80
2017-11-22T11:37:47.064Z,58.90
2017-11-22T11:38:52.054Z,58.80
2017-11-22T11:39:56.745Z,58.50
2017-11-22T11:41:02.159Z,58.80
2017-11-22T11:42:07.702Z,58.50
2017-11-22T11:43:13.386Z,58.50
2017-11-22T11:44:18.157Z,58.40
2017-11-22T11:45:23.382Z,58.40
2017-11-22T11:46:27.773Z,58.40
2017-11-22T11:47:32.319Z,58.80
2017-11-22T11:48:38.439Z,57.80
2017-11-22T11:49:42.843Z,57.80
2017-11-22T11:50:47.259Z,57.70
2017-11-22T11:51:51.682Z,58.10
2017-11-22T11:52:56.844Z,58.70
2017-11-22T11:54:01.846Z,57.70
2017-11-22T11:55:07.047Z,57.90
2017-11-22T11:56:12.188Z,57.90
2017-11-22T11:57:16.639Z,57.30
2017-11-22T11:58:21.259Z,57.90
2017-11-22T11:59:26.414Z,57.90
2017-11-22T12:00:30.859Z,57.80
2017-11-22T12:01:35.324Z,57.50
2017-11-22T12:02:40.615Z,57.70
2017-11-22T12:03:45.821Z,58.50
2017-11-22T12:04:50.395Z,58.50
2017-11-22T12:05:54.845Z,58.10
2017-11-22T12:06:59.288Z,58.20
2017-11-22T12:08:03.674Z,58.20
2017-11-22T12:09:08.044Z,58.20
2017-11-22T12:10:12.600Z,57.90
2017-11-22T12:11:17.746Z,57.80
2017-11-22T12:12:22.470Z,57.80
2017-11-22T12:13:26.861Z,58.10
2017-11-22T12:14:32.176Z,58.20
2017-11-22T12:15:37.580Z,58.30
2017-11-22T12:16:41.913Z,58.30
2017-11-22T12:17:46.273Z,58.20
2017-11-22T12:18:50.761Z,58.30
2017-11-22T12:19:56.068Z,58.60
2017-11-22T12:21:01.274Z,58.70
2017-11-22T12:22:10.858Z,58.70
2017-11-22T12:23:20.934Z,59.40
2017-11-22T12:24:25.281Z,58.10
2017-11-22T12:25:30.915Z,57.80
2017-11-22T12:26:35.331Z,57.80
2017-11-22T12:27:40.552Z,57.40
2017-11-22T12:28:45.684Z,57.10
2017-11-22T12:29:50.081Z,57.20
2017-11-22T12:30:54.981Z,57.40
2017-11-22T12:31:59.406Z,56.30
2017-11-22T12:33:04.592Z,56.40
2017-11-22T12:34:19.087Z,56.40
2017-11-22T12:35:26.959Z,55.70
2017-11-22T12:36:31.411Z,55.70
2017-11-22T12:37:36.626Z,55.50
2017-11-22T12:38:41.066Z,55.50
2017-11-22T12:39:45.487Z,55.80
2017-11-22T12:40:49.795Z,55.80
2017-11-22T12:41:54.536Z,56.00
2017-11-22T12:42:58.946Z,56.00
2017-11-22T12:44:10.266Z,55.90
2017-11-22T12:45:15.670Z,55.60
2017-11-22T12:46:20.097Z,55.50
2017-11-22T12:47:25.130Z,55.40
2017-11-22T12:48:30.591Z,55.70
2017-11-22T12:49:34.966Z,55.60
2017-11-22T12:50:40.065Z,55.00
2017-11-22T12:51:44.514Z,55.00
2017-11-22T12:52:48.998Z,54.60
2017-11-22T12:53:53.358Z,54.60
2017-11-22T12:54:57.826Z,54.90
2017-11-22T12:56:03.024Z,54.30
2017-11-22T12:57:07.453Z,54.30
2017-11-22T12:58:13.840Z,54.40
2017-11-22T12:59:19.086Z,54.70
2017-11-22T13:00:23.930Z,54.70
2017-11-22T13:01:28.412Z,55.30
2017-11-22T13:02:33.184Z,55.50
2017-11-22T13:03:38.630Z,55.80
2017-11-22T13:04:43.089Z,55.80
2017-11-22T13:05:47.485Z,56.10
2017-11-22T13:06:52.165Z,56.80
2017-11-22T13:07:56.589Z,56.80
2017-11-22T13:09:01.771Z,57.10
2017-11-22T13:11:41.164Z,57.00
2017-11-22T13:12:48.355Z,58.00
2017-11-22T13:13:52.948Z,58.00
2017-11-22T13:14:58.109Z,58.80
2017-11-22T13:16:02.479Z,58.80
2017-11-22T13:17:07.725Z,59.50
2017-11-22T13:18:12.314Z,59.40
2017-11-22T13:19:16.812Z,60.40
2017-11-22T13:20:21.423Z,60.00
2017-11-22T13:21:25.849Z,59.60
2017-11-22T13:22:31.096Z,59.80
2017-11-22T13:23:36.437Z,59.50
2017-11-22T13:24:40.886Z,59.40
2017-11-22T13:25:46.112Z,59.50
2017-11-22T13:26:50.586Z,59.60
2017-11-22T13:27:54.968Z,60.00
2017-11-22T13:29:00.388Z,59.70
2017-11-22T13:30:05.055Z,59.60
2017-11-22T13:31:09.709Z,59.80
2017-11-22T13:38:02.001Z,59.30
2017-11-22T13:39:06.920Z,59.00
2017-11-22T13:40:12.299Z,60.40
2017-11-22T13:41:17.000Z,60.40
2017-11-22T13:42:21.503Z,59.90
2017-11-22T13:44:11.438Z,59.90
2017-11-22T13:45:17.338Z,59.70
2017-11-22T13:46:21.843Z,59.80
2017-11-22T13:47:26.392Z,60.10
2017-11-22T13:48:31.605Z,59.90
2017-11-22T13:49:36.582Z,59.80
2017-11-22T13:50:42.441Z,60.00
2017-11-22T13:51:47.389Z,59.90
2017-11-22T13:52:51.989Z,59.70
2017-11-22T13:53:56.391Z,59.60
2017-11-22T13:55:01.277Z,59.60
2017-11-22T13:56:06.157Z,59.10
2017-11-22T13:57:10.742Z,59.10
2017-11-22T13:58:16.031Z,58.90
2017-11-22T13:59:20.579Z,58.90
2017-11-22T14:00:25.994Z,59.30
2017-11-22T14:01:31.684Z,59.90
2017-11-22T14:02:36.156Z,59.90
2017-11-22T14:03:41.556Z,60.40
2017-11-22T14:04:46.181Z,60.40
2017-11-22T14:05:51.229Z,60.80
2017-11-22T14:06:56.779Z,61.30
2017-11-22T14:08:02.221Z,61.10
2017-11-22T14:09:07.161Z,61.00
2017-11-22T14:10:11.605Z,61.70
2017-11-22T14:11:16.722Z,62.00
2017-11-22T14:12:21.384Z,62.00
2017-11-22T14:13:26.684Z,62.60
2017-11-22T14:14:31.415Z,62.60
2017-11-22T14:15:36.861Z,63.00
2017-11-22T14:16:42.387Z,63.30
2017-11-22T14:17:47.199Z,63.20
2017-11-22T14:18:51.859Z,63.40
2017-11-22T14:19:56.374Z,63.60
2017-11-22T14:21:00.913Z,63.60
2017-11-22T14:22:06.122Z,63.80
2017-11-22T14:23:10.643Z,64.40
2017-11-22T14:24:15.167Z,64.60
2017-11-22T14:25:19.648Z,64.70
2017-11-22T14:26:24.107Z,65.00
2017-11-22T14:27:29.135Z,65.20
2017-11-22T14:28:34.280Z,65.30
2017-11-22T14:29:40.315Z,68.40